Time;durP1;ratioP1;P1;durP2;ratioP2;P2;SDS_P1;SDS_P2;PMS_P1;PMS_P2;Temp;Humidity;BMP_temperature;BMP_pressure;BME280_temperature;BME280_humidity;BME280_pressure;Samples;Min_cycle;Max_cycle;Signal;HPM_P1;HPM_P2
2023/05/07 00:02:20;;;;;;;;;1.00;1.00;;;;;18.36;53.58;101008.09;5039810;28;45550;-63
2023/05/07 00:04:46;;;;;;;;;2.00;0.50;;;;;18.38;53.91;101010.69;5041684;28;45529;-62
2023/05/07 00:07:11;;;;;;;;;2.25;1.00;;;;;18.40;53.73;101024.81;5041111;28;45551;-62
2023/05/07 00:09:37;;;;;;;;;1.00;1.00;;;;;18.39;53.71;101020.41;5041647;28;45404;-62
2023/05/07 00:12:02;;;;;;;;;0.75;0.25;;;;;18.38;54.00;101013.34;5023412;28;45362;-62
2023/05/07 00:14:27;;;;;;;;;0.00;0.00;;;;;18.37;53.83;101009.84;5023584;28;46334;-63
2023/05/07 00:16:53;;;;;;;;;0.00;0.00;;;;;18.27;54.04;100997.88;5041220;28;45233;-63
2023/05/07 00:19:18;;;;;;;;;0.25;0.00;;;;;18.31;54.17;101015.41;5041561;28;45375;-62
2023/05/07 00:21:43;;;;;;;;;1.00;1.00;;;;;18.31;54.18;101018.06;5041101;28;45533;-62
2023/05/07 00:24:09;;;;;;;;;0.00;0.00;;;;;18.29;54.21;101014.63;5038611;28;46930;-63
2023/05/07 00:26:34;;;;;;;;;0.25;0.25;;;;;18.31;54.21;101021.63;5040838;28;45198;-63
2023/05/07 00:28:59;;;;;;;;;0.00;0.00;;;;;18.26;54.10;101006.75;5041418;28;45487;-62
2023/05/07 00:31:25;;;;;;;;;2.00;0.00;;;;;18.27;53.98;101016.47;5041399;28;45454;-63
2023/05/07 00:33:50;;;;;;;;;0.25;0.00;;;;;18.24;54.26;101003.28;5040878;28;57797;-63
2023/05/07 00:36:15;;;;;;;;;2.25;1.00;;;;;18.22;54.38;101005.19;5041012;28;45354;-62
2023/05/07 00:38:40;;;;;;;;;0.25;0.25;;;;;18.22;54.26;101002.53;5041340;28;45467;-62
2023/05/07 00:41:06;;;;;;;;;1.25;0.50;;;;;18.22;54.21;101007.84;5039409;28;45510;-62
2023/05/07 00:43:32;;;;;;;;;1.00;0.75;;;;;18.19;54.34;100995.53;5040949;28;46881;-62
2023/05/07 00:45:57;;;;;;;;;10.50;9.25;;;;;18.22;54.50;101018.47;5039537;28;45336;-63
2023/05/07 00:48:24;;;;;;;;;8.25;6.50;;;;;18.21;54.55;101019.41;5040990;28;45338;-63
2023/05/07 00:50:50;;;;;;;;;2.00;2.00;;;;;18.19;54.47;101019.47;5041032;28;45390;-63
2023/05/07 00:53:15;;;;;;;;;0.00;0.00;;;;;18.14;54.52;101016.13;5040680;28;45366;-63
2023/05/07 00:55:41;;;;;;;;;2.25;2.25;;;;;18.17;54.75;101008.00;5040331;28;45221;-63
2023/05/07 00:58:06;;;;;;;;;2.25;2.00;;;;;18.16;54.50;101016.91;5039568;28;45226;-63
2023/05/07 01:00:32;;;;;;;;;1.25;1.00;;;;;18.14;54.77;101014.34;5040582;28;45428;-63
2023/05/07 01:02:58;;;;;;;;;0.75;0.75;;;;;18.12;54.63;101010.84;5040938;28;46521;-63
2023/05/07 01:05:24;;;;;;;;;2.50;1.00;;;;;18.14;54.85;101017.00;5039382;28;45227;-63
2023/05/07 01:07:52;;;;;;;;;2.00;2.00;;;;;18.14;54.41;101006.34;5040524;28;45301;-62
2023/05/07 01:10:18;;;;;;;;;1.00;1.00;;;;;18.13;55.02;101004.63;5040061;28;45377;-62
2023/05/07 01:12:45;;;;;;;;;3.75;2.00;;;;;18.11;55.06;100993.19;5040542;28;45384;-63
2023/05/07 01:15:11;;;;;;;;;1.00;1.00;;;;;18.12;55.35;100989.59;5040427;28;45162;-63
2023/05/07 01:17:40;;;;;;;;;1.00;1.00;;;;;18.12;54.97;100992.25;5022498;28;45430;-62
2023/05/07 01:20:07;;;;;;;;;1.25;1.00;;;;;18.13;55.13;100986.00;5040255;28;45361;-63
2023/05/07 01:22:33;;;;;;;;;0.00;0.00;;;;;18.12;55.19;100984.25;5031913;28;47124;-62
2023/05/07 01:25:01;;;;;;;;;1.00;1.00;;;;;18.14;55.03;100987.75;5039883;28;45328;-62
2023/05/07 01:27:26;;;;;;;;;1.00;1.00;;;;;18.14;55.31;100976.25;5039152;28;45419;-62
2023/05/07 01:29:52;;;;;;;;;2.00;1.00;;;;;18.14;55.04;100978.91;5022256;28;45489;-62
2023/05/07 01:32:21;;;;;;;;;1.00;1.00;;;;;18.13;55.18;100967.38;5040199;28;46233;-62
2023/05/07 01:34:48;;;;;;;;;1.00;1.00;;;;;18.12;55.16;100973.63;5040348;28;45254;-62
2023/05/07 01:37:14;;;;;;;;;1.25;1.00;;;;;18.10;55.23;100958.66;5040375;28;45331;-62
2023/05/07 01:39:43;;;;;;;;;2.00;1.25;;;;;18.13;55.50;100966.53;5039453;28;45274;-63
2023/05/07 01:42:09;;;;;;;;;2.50;1.00;;;;;18.12;55.34;100955.00;5039798;28;45335;-63
2023/05/07 01:44:34;;;;;;;;;1.50;1.50;;;;;18.15;55.24;100967.31;5040014;28;45253;-62
2023/05/07 01:47:02;;;;;;;;;0.75;0.75;;;;;18.15;55.38;100968.19;5040132;28;45471;-63
2023/05/07 01:49:27;;;;;;;;;2.00;2.00;;;;;18.13;55.36;100953.25;5040097;28;45252;-62
2023/05/07 01:51:53;;;;;;;;;1.25;1.00;;;;;18.16;55.71;100953.97;5038581;28;47129;-63
2023/05/07 01:54:20;;;;;;;;;2.25;1.00;;;;;18.17;55.77;100958.34;5021681;28;45371;-62
2023/05/07 01:56:47;;;;;;;;;3.00;2.25;;;;;18.18;55.58;100962.72;5021957;28;45242;-63
2023/05/07 01:59:13;;;;;;;;;4.00;1.00;;;;;18.18;55.56;100962.72;5039657;28;45415;-62
2023/05/07 02:01:38;;;;;;;;;3.00;3.00;;;;;18.18;55.71;100964.53;5039702;28;46014;-62
2023/05/07 02:04:04;;;;;;;;;2.00;2.00;;;;;18.19;55.76;100971.59;5038815;28;45284;-62
2023/05/07 02:06:30;;;;;;;;;2.25;2.25;;;;;18.18;55.55;100965.41;5038549;28;45288;-62
2023/05/07 02:08:56;;;;;;;;;2.00;2.00;;;;;18.18;55.63;100957.41;5038357;28;46029;-62
2023/05/07 02:11:21;;;;;;;;;4.75;3.75;;;;;18.19;56.10;100959.16;5039315;28;45226;-62
2023/05/07 02:13:46;;;;;;;;;3.00;2.00;;;;;18.17;56.02;100955.69;5039700;28;45331;-62
2023/05/07 02:16:14;;;;;;;;;2.00;1.25;;;;;18.18;55.82;100962.72;5039911;28;45391;-62
2023/05/07 02:18:39;;;;;;;;;1.25;1.25;;;;;18.16;55.91;100959.28;5039509;28;45416;-62
2023/05/07 02:21:04;;;;;;;;;1.75;1.75;;;;;18.15;55.79;100965.53;5026223;28;47741;-62
2023/05/07 02:23:30;;;;;;;;;2.50;2.25;;;;;18.14;55.88;100963.81;5038076;28;45355;-62
2023/05/07 02:25:55;;;;;;;;;2.00;2.00;;;;;18.16;55.89;100969.06;5039475;28;45332;-61
2023/05/07 02:28:20;;;;;;;;;2.50;2.50;;;;;18.06;56.25;100955.28;5039460;28;45254;-62
2023/05/07 02:30:46;;;;;;;;;2.00;2.00;;;;;18.14;56.15;100961.16;5039610;28;45566;-62
2023/05/07 02:33:13;;;;;;;;;2.00;2.00;;;;;18.12;55.79;100967.47;5039449;28;45503;-61
2023/05/07 02:35:38;;;;;;;;;3.00;2.00;;;;;18.14;56.15;100962.94;5037435;28;45357;-61
2023/05/07 02:38:04;;;;;;;;;2.00;2.00;;;;;18.13;56.20;100961.22;5039304;28;45226;-61
2023/05/07 02:40:29;;;;;;;;;2.75;2.75;;;;;18.11;56.27;100955.09;5039125;28;45309;-62
2023/05/07 02:42:54;;;;;;;;;3.00;2.00;;;;;18.12;56.05;100954.16;5039342;28;45209;-61
2023/05/07 02:45:20;;;;;;;;;3.75;3.00;;;;;18.10;56.20;100951.56;5039769;28;45297;-61
2023/05/07 02:47:46;;;;;;;;;3.00;2.00;;;;;18.09;56.39;100952.50;5042629;28;45366;-61
2023/05/07 02:50:11;;;;;;;;;4.75;4.00;;;;;18.08;56.33;100950.75;5042905;28;45352;-61
2023/05/07 02:52:36;;;;;;;;;3.00;3.00;;;;;18.07;56.30;100957.00;5042732;28;45256;-61
2023/05/07 02:55:02;;;;;;;;;3.25;2.00;;;;;18.08;56.23;100957.88;5042218;28;51905;-61
2023/05/07 02:57:27;;;;;;;;;0.00;0.00;;;;;18.08;56.13;100969.38;5024818;28;45549;-61
2023/05/07 02:59:53;;;;;;;;;1.00;1.00;;;;;18.08;56.24;100985.34;5042598;28;45705;-61
2023/05/07 03:02:18;;;;;;;;;2.00;2.00;;;;;18.07;56.18;100988.06;5024215;28;52340;-61
2023/05/07 03:04:43;;;;;;;;;3.00;2.25;;;;;18.03;56.73;100977.53;5042788;28;45347;-62
2023/05/07 03:07:08;;;;;;;;;3.00;3.00;;;;;17.95;56.65;100945.09;5023559;28;45598;-62
2023/05/07 03:09:34;;;;;;;;;3.25;1.25;;;;;18.00;56.72;100952.91;5042191;28;52399;-62
2023/05/07 03:11:59;;;;;;;;;1.75;1.75;;;;;18.01;56.42;100962.56;5024291;28;45405;-61
2023/05/07 03:14:24;;;;;;;;;3.00;2.25;;;;;18.00;56.60;100968.84;5042717;28;45629;-61
2023/05/07 03:16:50;;;;;;;;;2.00;2.00;;;;;18.02;56.52;100982.94;5024508;28;45422;-61
2023/05/07 03:19:15;;;;;;;;;0.00;0.00;;;;;18.00;56.47;100990.13;5042413;28;45344;-61
2023/05/07 03:21:41;;;;;;;;;2.00;2.00;;;;;18.00;56.53;100979.50;5042400;28;45250;-61
2023/05/07 03:24:06;;;;;;;;;1.25;0.50;;;;;17.97;56.57;100975.13;5042417;28;45323;-61
2023/05/07 03:26:32;;;;;;;;;2.75;2.00;;;;;17.90;56.83;100963.00;5042087;28;45303;-61
2023/05/07 03:28:57;;;;;;;;;2.25;1.25;;;;;17.95;56.69;100979.66;5042316;28;46055;-61
2023/05/07 03:31:22;;;;;;;;;1.50;1.50;;;;;17.97;56.72;100982.25;5024192;28;45257;-62
2023/05/07 03:33:56;;;;;;;;;1.75;1.75;;;;;17.94;56.71;100983.25;5042484;28;45234;-61
2023/05/07 03:36:22;;;;;;;;;2.00;1.50;;;;;17.92;56.94;100976.22;5041974;28;45337;-62
2023/05/07 03:38:48;;;;;;;;;0.50;0.00;;;;;17.91;56.63;100985.13;5041867;28;46144;-62
2023/05/07 03:41:13;;;;;;;;;2.00;1.50;;;;;17.89;56.85;100990.53;5023737;28;45275;-62
2023/05/07 03:43:39;;;;;;;;;1.00;1.00;;;;;17.87;56.82;100995.91;5042131;28;45302;-62
2023/05/07 03:46:04;;;;;;;;;0.75;0.75;;;;;17.83;57.00;100988.97;5041805;28;45486;-62
2023/05/07 03:48:29;;;;;;;;;0.25;0.25;;;;;17.86;56.68;101001.25;5041745;28;45377;-62
2023/05/07 03:50:57;;;;;;;;;0.00;0.00;;;;;17.83;56.82;100996.09;5042056;28;45282;-61
2023/05/07 03:53:22;;;;;;;;;0.25;0.25;;;;;17.84;56.75;100995.16;5024114;28;45369;-62
2023/05/07 03:55:47;;;;;;;;;1.50;1.50;;;;;17.81;57.05;100998.81;5041395;28;45388;-62
2023/05/07 03:58:12;;;;;;;;;0.00;0.00;;;;;17.83;57.03;101001.41;5039210;28;47076;-62
2023/05/07 04:00:39;;;;;;;;;1.00;1.00;;;;;17.79;56.81;100994.47;5041477;28;46942;-62
2023/05/07 04:03:05;;;;;;;;;3.00;2.00;;;;;17.65;57.24;100982.59;5024328;28;45420;-63
2023/05/07 04:05:31;;;;;;;;;1.25;1.25;;;;;17.73;56.89;101002.69;5041531;28;45253;-62
2023/05/07 04:07:58;;;;;;;;;2.00;2.00;;;;;17.69;57.03;101002.81;5040939;28;51974;-62
2023/05/07 04:10:23;;;;;;;;;2.00;2.00;;;;;17.69;57.10;101000.16;5041219;28;45267;-62
2023/05/07 04:12:49;;;;;;;;;2.00;2.00;;;;;17.63;57.08;100997.72;5041676;28;45167;-62
2023/05/07 04:15:14;;;;;;;;;1.75;1.75;;;;;17.65;56.80;101003.00;5022816;28;45401;-62
2023/05/07 04:17:41;;;;;;;;;1.00;1.00;;;;;17.66;57.13;101004.72;5023501;28;47176;-62
2023/05/07 04:20:09;;;;;;;;;1.75;1.75;;;;;17.63;57.00;100994.22;5036545;28;45316;-62
2023/05/07 04:22:34;;;;;;;;;1.00;1.00;;;;;17.64;56.94;100994.16;5032345;28;45321;-62
2023/05/07 04:25:00;;;;;;;;;2.50;2.00;;;;;17.65;57.21;101001.22;5040886;28;45333;-62
2023/05/07 04:27:26;;;;;;;;;1.00;1.00;;;;;17.65;57.15;100995.91;5039845;28;46446;-62
2023/05/07 04:29:51;;;;;;;;;1.50;1.00;;;;;17.66;57.19;101002.94;5041357;28;45224;-62
2023/05/07 04:32:17;;;;;;;;;0.00;0.00;;;;;17.68;57.10;101002.88;5041520;28;45278;-62
2023/05/07 04:34:45;;;;;;;;;1.00;1.00;;;;;17.66;57.13;100999.41;5039014;28;45307;-62
2023/05/07 04:37:11;;;;;;;;;3.25;1.25;;;;;17.68;57.04;101005.53;5039724;28;47295;-62
2023/05/07 04:39:36;;;;;;;;;1.00;1.00;;;;;17.68;57.41;101016.16;5040763;28;45316;-62
2023/05/07 04:42:02;;;;;;;;;2.00;1.00;;;;;17.70;57.05;101014.31;5041228;28;45327;-62
2023/05/07 04:44:28;;;;;;;;;3.00;2.00;;;;;17.71;57.19;101013.41;5041043;28;45464;-62
2023/05/07 04:46:53;;;;;;;;;3.00;3.00;;;;;17.68;57.13;101027.69;5040760;28;46274;-62
2023/05/07 04:49:18;;;;;;;;;1.50;1.50;;;;;17.65;57.44;101027.78;5040922;28;45325;-61
2023/05/07 04:51:44;;;;;;;;;3.00;1.25;;;;;17.65;57.40;101027.78;5041136;28;45494;-61
2023/05/07 04:54:09;;;;;;;;;2.50;2.00;;;;;17.60;57.32;101021.78;5040682;28;45515;-61
2023/05/07 04:56:35;;;;;;;;;1.75;1.00;;;;;17.58;57.46;101022.78;5040498;28;45360;-62
2023/05/07 04:59:00;;;;;;;;;2.00;2.00;;;;;17.61;57.46;101035.91;5040791;28;45354;-63
2023/05/07 05:01:25;;;;;;;;;1.75;1.75;;;;;17.59;57.46;101030.69;5040475;28;45388;-63
2023/05/07 05:03:51;;;;;;;;;3.50;2.75;;;;;17.56;57.38;101033.47;5040586;28;45569;-63
2023/05/07 05:06:16;;;;;;;;;3.75;2.75;;;;;17.55;57.81;101039.69;5039150;28;47095;-63
2023/05/07 05:08:41;;;;;;;;;2.75;1.75;;;;;17.53;57.73;101039.75;5040216;28;45338;-62
2023/05/07 05:11:07;;;;;;;;;1.75;1.25;;;;;17.49;57.40;101035.47;5040505;28;45243;-63
2023/05/07 05:13:32;;;;;;;;;3.75;2.00;;;;;17.50;57.70;101037.22;5040610;28;45421;-62
2023/05/07 05:15:57;;;;;;;;;2.75;2.00;;;;;17.51;57.61;101041.59;5022527;28;48303;-63
2023/05/07 05:18:23;;;;;;;;;1.75;1.75;;;;;17.44;57.47;101033.94;5038889;28;53479;-63
2023/05/07 05:20:48;;;;;;;;;3.00;3.00;;;;;17.51;57.73;101044.25;5035248;28;45447;-63
2023/05/07 05:23:13;;;;;;;;;3.00;2.25;;;;;17.51;57.69;101046.06;5036535;28;48306;-63
2023/05/07 05:25:40;;;;;;;;;1.25;1.25;;;;;17.51;57.69;101046.91;5022150;28;46202;-63
2023/05/07 05:28:05;;;;;;;;;3.50;3.00;;;;;17.51;57.78;101044.25;5040413;28;45246;-62
2023/05/07 05:30:30;;;;;;;;;2.25;2.25;;;;;17.50;57.61;101047.84;5040380;28;45376;-63
2023/05/07 05:32:56;;;;;;;;;3.75;3.75;;;;;17.54;57.75;101054.75;5022420;28;45560;-63
2023/05/07 05:35:21;;;;;;;;;4.00;3.00;;;;;17.52;57.66;101059.28;5040246;28;46126;-63
2023/05/07 05:37:47;;;;;;;;;3.00;3.00;;;;;17.53;57.88;101063.69;5038824;28;45311;-63
2023/05/07 05:40:12;;;;;;;;;3.00;3.00;;;;;17.55;57.75;101067.13;5040093;28;45312;-63
2023/05/07 05:42:38;;;;;;;;;2.50;2.50;;;;;17.57;57.73;101067.06;5038504;28;55893;-63
2023/05/07 05:45:03;;;;;;;;;2.25;2.25;;;;;17.57;57.67;101061.75;5021480;28;47709;-63
2023/05/07 05:47:29;;;;;;;;;3.75;2.75;;;;;17.59;58.10;101067.88;5021797;28;45480;-63
2023/05/07 05:49:54;;;;;;;;;1.00;1.00;;;;;17.58;57.79;101070.59;5040384;28;45274;-61
2023/05/07 05:52:23;;;;;;;;;3.25;2.25;;;;;17.57;57.94;101063.53;5038600;28;45312;-61
2023/05/07 05:54:48;;;;;;;;;2.50;2.50;;;;;17.59;57.83;101075.00;5039611;28;46338;-61
2023/05/07 05:57:14;;;;;;;;;3.00;2.00;;;;;17.58;57.81;101071.44;5039841;28;45230;-62
2023/05/07 05:59:39;;;;;;;;;4.75;2.00;;;;;17.56;57.97;101075.97;5040144;28;45275;-61
2023/05/07 06:02:05;;;;;;;;;4.00;2.50;;;;;17.52;58.00;101072.56;5039867;28;45370;-62
2023/05/07 06:04:31;;;;;;;;;1.50;1.50;;;;;17.51;57.72;101072.63;5040030;28;46195;-62
2023/05/07 06:06:56;;;;;;;;;5.50;3.25;;;;;17.51;58.07;101078.81;5021404;28;45944;-62
2023/05/07 06:09:22;;;;;;;;;1.00;1.00;;;;;17.49;58.12;101080.63;5038649;28;45418;-62
2023/05/07 06:11:47;;;;;;;;;5.00;5.00;;;;;17.50;58.09;101082.38;5039416;28;48669;-62
2023/05/07 06:14:12;;;;;;;;;1.75;1.00;;;;;17.50;57.98;101086.84;5039973;28;45360;-62
2023/05/07 06:16:38;;;;;;;;;2.25;2.00;;;;;17.47;58.04;101087.81;5039422;28;53193;-62
2023/05/07 06:19:03;;;;;;;;;2.00;2.00;;;;;17.48;57.88;101088.66;5039862;28;45939;-63
2023/05/07 06:21:28;;;;;;;;;3.75;2.50;;;;;17.45;57.98;101080.84;5040251;28;45449;-63
2023/05/07 06:23:54;;;;;;;;;1.75;1.75;;;;;17.46;58.16;101087.84;5043148;28;51412;-63
2023/05/07 06:26:20;;;;;;;;;4.00;2.00;;;;;17.45;58.10;101079.03;5041438;28;45385;-63
2023/05/07 06:28:46;;;;;;;;;3.50;2.50;;;;;17.48;58.15;101088.66;5042048;28;45258;-63
2023/05/07 06:31:15;;;;;;;;;4.25;4.25;;;;;17.46;58.18;101083.41;5043060;28;45568;-63
2023/05/07 06:33:41;;;;;;;;;3.75;3.75;;;;;17.47;57.88;101081.63;5041781;28;47377;-63
2023/05/07 06:36:06;;;;;;;;;2.75;2.75;;;;;17.47;58.30;101077.19;5042967;28;45293;-63
2023/05/07 06:38:32;;;;;;;;;3.50;3.50;;;;;17.48;58.58;101083.34;5043121;28;45304;-63
2023/05/07 06:40:57;;;;;;;;;3.00;2.50;;;;;17.48;58.15;101073.63;5042724;28;45301;-63
2023/05/07 06:43:22;;;;;;;;;2.00;2.00;;;;;17.47;58.22;101081.63;5025170;28;48114;-63
2023/05/07 06:45:48;;;;;;;;;2.00;2.00;;;;;17.48;58.25;101086.00;5042783;28;48425;-61
2023/05/07 06:48:13;;;;;;;;;4.25;2.00;;;;;17.48;58.12;101086.91;5043054;28;45279;-61
2023/05/07 06:50:38;;;;;;;;;3.00;2.00;;;;;17.50;58.17;101095.66;5042850;28;45369;-62
2023/05/07 06:53:04;;;;;;;;;20.25;16.50;;;;;17.50;58.22;101098.31;5042668;28;48876;-62
2023/05/07 06:55:29;;;;;;;;;31.75;30.75;;;;;17.50;58.13;101093.00;5042409;28;45575;-62
2023/05/07 06:57:54;;;;;;;;;3.25;3.25;;;;;17.51;58.45;101102.72;5042986;28;45451;-62
2023/05/07 07:00:20;;;;;;;;;2.75;2.75;;;;;17.50;58.52;101098.31;5042559;28;45285;-62
2023/05/07 07:02:45;;;;;;;;;1.00;1.00;;;;;17.51;58.43;101100.06;5042754;28;46725;-62
2023/05/07 07:05:10;;;;;;;;;2.25;1.25;;;;;17.53;58.51;101106.19;5041266;28;45306;-62
2023/05/07 07:07:36;;;;;;;;;1.00;1.00;;;;;17.53;58.17;101103.53;5042432;28;45247;-61
2023/05/07 07:10:03;;;;;;;;;2.50;1.00;;;;;17.54;58.58;101102.59;5042190;28;45253;-62
2023/05/07 07:12:29;;;;;;;;;1.50;1.50;;;;;17.55;58.35;101106.97;5042827;28;45292;-62
2023/05/07 07:14:55;;;;;;;;;1.00;1.00;;;;;17.57;58.57;101104.25;5042355;28;45268;-62
2023/05/07 07:17:20;;;;;;;;;4.00;2.00;;;;;17.55;58.53;101104.31;5041306;28;45227;-62
2023/05/07 07:19:46;;;;;;;;;2.25;2.00;;;;;17.58;58.23;101110.44;5042271;28;45509;-62
2023/05/07 07:22:11;;;;;;;;;4.75;3.25;;;;;17.60;58.61;101108.63;5042375;28;45347;-62
2023/05/07 07:24:36;;;;;;;;;3.75;3.00;;;;;17.60;58.43;101114.78;5041964;28;45406;-62
2023/05/07 07:27:01;;;;;;;;;5.00;3.25;;;;;17.61;58.60;101120.94;5042518;28;45307;-62
2023/05/07 07:29:27;;;;;;;;;14.75;12.75;;;;;17.60;58.68;101113.94;5040859;28;45481;-62
2023/05/07 07:31:52;;;;;;;;;8.00;7.00;;;;;17.60;58.57;101121.91;5040592;28;54040;-62
2023/05/07 07:34:17;;;;;;;;;4.00;4.00;;;;;17.60;58.59;101117.44;5024173;28;45775;-62
2023/05/07 07:36:43;;;;;;;;;3.00;3.00;;;;;17.62;58.31;101122.69;5042499;28;45301;-61
2023/05/07 07:39:08;;;;;;;;;5.50;4.50;;;;;17.60;58.80;101127.22;5041763;28;50108;-62
2023/05/07 07:41:33;;;;;;;;;4.00;4.00;;;;;17.57;58.92;101120.19;5041766;28;45295;-62
2023/05/07 07:43:58;;;;;;;;;3.00;3.00;;;;;17.63;58.77;101127.09;5041899;28;48197;-62
2023/05/07 07:46:24;;;;;;;;;4.00;4.00;;;;;17.63;58.53;101133.25;5041630;28;48163;-62
2023/05/07 07:48:49;;;;;;;;;4.50;4.50;;;;;17.62;58.79;101128.00;5040674;28;45524;-62
2023/05/07 07:51:15;;;;;;;;;5.00;4.00;;;;;17.66;58.88;101134.94;5041792;28;45341;-61
2023/05/07 07:53:41;;;;;;;;;6.00;5.00;;;;;17.66;58.84;101134.94;5041960;28;45345;-61
2023/05/07 07:56:06;;;;;;;;;4.00;3.00;;;;;17.68;58.81;101141.06;5041582;28;45424;-61
2023/05/07 07:58:31;;;;;;;;;10.00;8.00;;;;;17.70;58.60;101136.56;5041654;28;45524;-61
2023/05/07 08:00:56;;;;;;;;;7.25;6.25;;;;;17.70;59.19;101132.09;5041538;28;46017;-62
2023/05/07 08:03:22;;;;;;;;;6.50;5.00;;;;;17.71;58.57;101136.50;5041681;28;45326;-62
2023/05/07 08:05:49;;;;;;;;;6.75;6.75;;;;;17.71;58.71;101133.84;5041816;28;45226;-62
2023/05/07 08:08:15;;;;;;;;;4.75;4.00;;;;;17.70;58.75;101131.25;5023815;28;45518;-61
2023/05/07 08:10:40;;;;;;;;;2.00;2.00;;;;;17.77;58.83;101142.50;5023088;28;47360;-62
2023/05/07 08:13:06;;;;;;;;;3.00;3.00;;;;;17.77;58.83;101147.81;5041569;28;45305;-62
2023/05/07 08:15:31;;;;;;;;;3.25;3.25;;;;;17.77;58.83;101151.34;5041596;28;45407;-62
2023/05/07 08:17:59;;;;;;;;;2.50;2.50;;;;;17.78;59.00;101155.72;5041443;28;45577;-62
2023/05/07 08:20:25;;;;;;;;;3.25;3.25;;;;;17.77;58.89;101159.31;5036495;28;46902;-62
2023/05/07 08:22:51;;;;;;;;;5.75;3.00;;;;;17.79;58.92;101161.94;5016595;28;45781;-62
2023/05/07 08:25:16;;;;;;;;;6.25;6.00;;;;;17.79;58.84;101162.78;5040886;28;50691;-62
2023/05/07 08:27:42;;;;;;;;;3.50;3.00;;;;;17.80;58.96;101164.53;5041277;28;45247;-61
2023/05/07 08:30:08;;;;;;;;;3.50;3.00;;;;;17.81;58.77;101166.28;5041361;28;45277;-62
2023/05/07 08:32:33;;;;;;;;;3.50;3.50;;;;;17.80;59.10;101164.53;5041339;28;45410;-62
2023/05/07 08:34:58;;;;;;;;;4.00;4.00;;;;;17.81;59.01;101171.59;5041244;28;45365;-62
2023/05/07 08:37:24;;;;;;;;;3.00;3.00;;;;;17.81;59.13;101168.94;5041295;28;45344;-62
2023/05/07 08:39:49;;;;;;;;;5.00;4.00;;;;;17.84;58.96;101171.44;5040828;28;45331;-61
2023/05/07 08:42:16;;;;;;;;;2.75;2.00;;;;;17.84;58.86;101174.09;5039804;28;45288;-62
2023/05/07 08:44:46;;;;;;;;;3.75;3.75;;;;;17.79;58.81;101170.75;5040256;28;45359;-61
2023/05/07 08:47:12;;;;;;;;;1.00;1.00;;;;;17.85;58.98;101175.84;5040811;28;45253;-62
2023/05/07 08:49:38;;;;;;;;;1.25;1.25;;;;;17.86;59.08;101177.59;5040646;28;46289;-62
2023/05/07 08:52:03;;;;;;;;;1.00;0.00;;;;;17.86;58.80;101174.03;5040981;28;45265;-62
2023/05/07 08:54:29;;;;;;;;;2.00;2.00;;;;;17.89;58.77;101175.75;5040577;28;45294;-62
2023/05/07 08:56:54;;;;;;;;;2.50;2.25;;;;;17.87;58.90;101175.78;5040862;28;45237;-62
2023/05/07 08:59:20;;;;;;;;;3.25;3.25;;;;;17.85;58.79;101167.88;5040666;28;46034;-62
2023/05/07 09:01:45;;;;;;;;;7.00;5.25;;;;;17.88;59.11;101174.88;5022819;28;45249;-62
2023/05/07 09:04:12;;;;;;;;;3.50;3.50;;;;;17.87;58.69;101171.34;5040972;28;45432;-62
2023/05/07 09:06:41;;;;;;;;;3.75;3.00;;;;;17.91;58.96;101179.19;5022622;28;45420;-62
2023/05/07 09:09:07;;;;;;;;;4.50;3.25;;;;;17.91;59.15;101179.19;5022554;28;47955;-63
2023/05/07 09:11:32;;;;;;;;;5.00;2.75;;;;;17.92;59.07;101178.28;5040359;28;45306;-63
2023/05/07 09:14:01;;;;;;;;;2.00;2.00;;;;;17.95;58.85;101181.72;5027552;28;45593;-63
2023/05/07 09:16:30;;;;;;;;;2.75;2.00;;;;;17.95;58.95;101184.38;5040342;28;45551;-63
2023/05/07 09:18:58;;;;;;;;;2.00;2.00;;;;;17.96;59.04;101180.81;5040409;28;46200;-63
2023/05/07 09:21:24;;;;;;;;;1.50;1.00;;;;;17.96;59.00;101182.56;5040318;28;45284;-63
2023/05/07 09:23:54;;;;;;;;;1.00;1.00;;;;;17.98;58.91;101186.06;5040618;28;45289;-63
2023/05/07 09:26:23;;;;;;;;;1.25;1.25;;;;;17.97;59.15;101182.50;5039966;28;45418;-63
2023/05/07 09:28:50;;;;;;;;;1.50;1.50;;;;;17.97;59.24;101182.50;5038918;28;47421;-63
2023/05/07 09:31:16;;;;;;;;;1.00;1.00;;;;;17.99;58.99;101186.00;5022489;28;45397;-63
2023/05/07 09:33:41;;;;;;;;;2.00;2.00;;;;;17.99;59.18;101185.13;5040368;28;45380;-60
2023/05/07 09:36:08;;;;;;;;;2.75;1.00;;;;;18.02;59.04;101185.00;5039911;28;46017;-61
2023/05/07 09:38:34;;;;;;;;;2.25;2.25;;;;;18.01;59.21;101186.81;5040154;28;45387;-60
2023/05/07 09:41:11;;;;;;;;;1.00;1.00;;;;;18.03;59.25;101197.38;5039681;28;45475;-63
2023/05/07 09:43:37;;;;;;;;;1.50;1.50;;;;;18.03;59.17;101190.25;5040291;28;45416;-63
2023/05/07 09:46:07;;;;;;;;;5.00;4.00;;;;;18.02;59.17;101192.97;5039904;28;45463;-60
2023/05/07 09:48:39;;;;;;;;;0.25;0.25;;;;;18.05;59.03;101184.03;5039896;28;46083;-63
2023/05/07 09:51:25;;;;;;;;;0.75;0.75;;;;;18.09;58.99;101193.63;5040028;28;45315;-62
2023/05/07 09:53:53;;;;;;;;;2.00;2.00;;;;;18.10;58.85;101193.56;5040012;28;45313;-62
2023/05/07 09:56:19;;;;;;;;;1.00;1.00;;;;;18.09;58.94;101191.81;5036644;28;45598;-63
2023/05/07 09:58:46;;;;;;;;;1.00;1.00;;;;;18.13;59.13;101196.09;5039598;28;45428;-62
2023/05/07 10:01:12;;;;;;;;;1.00;1.00;;;;;18.15;58.95;101190.72;5040024;28;45172;-62
2023/05/07 10:03:40;;;;;;;;;1.00;0.75;;;;;18.16;58.99;101196.00;5039940;28;45266;-63
2023/05/07 10:06:08;;;;;;;;;2.75;2.00;;;;;18.19;59.10;101201.19;5021957;28;45452;-63
2023/05/07 10:08:35;;;;;;;;;1.00;1.00;;;;;18.23;59.15;101193.94;5039329;28;45435;-63
2023/05/07 10:11:01;;;;;;;;;3.75;3.75;;;;;18.29;59.13;101196.38;5039329;28;45334;-62
2023/05/07 10:13:26;;;;;;;;;1.75;1.75;;;;;18.34;58.87;101196.19;5039677;28;45147;-61
2023/05/07 10:15:53;;;;;;;;;14.00;12.50;;;;;18.38;59.30;101200.47;5039636;28;45274;-61
2023/05/07 10:18:23;;;;;;;;;9.50;8.00;;;;;18.42;59.19;101199.41;5039323;28;45270;-61
2023/05/07 10:20:52;;;;;;;;;2.75;2.75;;;;;18.47;58.96;101202.75;5039255;28;45438;-61
2023/05/07 10:23:26;;;;;;;;;2.00;2.00;;;;;18.53;58.96;101201.66;5039645;28;45221;-61
2023/05/07 10:25:54;;;;;;;;;2.00;1.00;;;;;18.54;59.14;101192.75;5039277;28;45206;-62
2023/05/07 10:28:22;;;;;;;;;1.00;1.00;;;;;18.62;58.80;101200.41;5039361;28;46236;-61
2023/05/07 10:31:22;;;;;;;;;3.50;1.50;;;;;18.66;58.97;101205.53;5039288;28;45278;-62
2023/05/07 10:33:51;;;;;;;;;4.00;3.00;;;;;18.71;58.95;101210.66;4993762;28;45320;-60
2023/05/07 10:36:18;;;;;;;;;5.50;3.00;;;;;18.74;59.24;101207.00;5021556;28;45457;-61
2023/05/07 10:38:43;;;;;;;;;1.50;0.75;;;;;18.77;58.86;101207.75;5039499;28;45368;-61
2023/05/07 10:41:09;;;;;;;;;2.00;2.00;;;;;18.80;58.84;101205.00;5038855;28;45427;-61
2023/05/07 10:43:41;;;;;;;;;2.00;2.00;;;;;18.81;58.91;101203.19;5039694;28;45527;-62
2023/05/07 10:46:10;;;;;;;;;12.75;9.25;;;;;18.87;58.94;101202.03;5039159;28;45437;-63
2023/05/07 10:49:11;;;;;;;;;1.50;1.50;;;;;18.92;58.76;101208.09;5021064;28;45536;-62
2023/05/07 10:51:37;;;;;;;;;1.50;1.50;;;;;18.93;58.68;101209.81;5021147;28;45486;-62
2023/05/07 10:54:18;;;;;;;;;2.50;2.50;;;;;18.97;58.96;101206.97;5021054;28;45447;-62
2023/05/07 10:56:43;;;;;;;;;1.00;1.00;;;;;19.02;58.48;101214.78;5037938;28;45801;-62
2023/05/07 10:59:23;;;;;;;;;2.00;2.00;;;;;19.07;58.66;101212.78;5038891;28;46307;-62
2023/05/07 11:02:03;;;;;;;;;1.50;1.50;;;;;19.11;59.06;101216.19;5021325;28;45289;-62
2023/05/07 11:04:31;;;;;;;;;2.75;2.25;;;;;19.14;58.89;101206.25;5021671;28;45268;-62
2023/05/07 11:07:05;;;;;;;;;2.00;1.00;;;;;19.20;58.95;101206.94;5021828;28;45498;-62
2023/05/07 11:09:52;;;;;;;;;3.00;3.00;;;;;19.25;58.87;101204.94;5042030;28;45318;-62
2023/05/07 11:12:36;;;;;;;;;2.00;2.00;;;;;19.30;58.82;101203.78;5042364;28;45319;-62
2023/05/07 11:15:04;;;;;;;;;5.00;3.25;;;;;19.35;58.24;101203.59;5042410;28;45364;-61
2023/05/07 11:17:31;;;;;;;;;2.25;2.25;;;;;19.42;58.66;101201.50;5024512;28;45321;-61
2023/05/07 11:19:57;;;;;;;;;1.00;1.00;;;;;19.51;58.81;101203.78;5024140;28;47102;-61
2023/05/07 11:22:32;;;;;;;;;2.75;2.00;;;;;19.58;58.34;101204.38;5040877;28;45198;-61